createdAt,value
2023-05-23T00:00:15.713Z,12.35
2023-05-23T00:02:48.758Z,11.50
2023-05-23T00:05:19.278Z,11.13
2023-05-23T00:07:49.641Z,11.95
2023-05-23T00:10:20.013Z,13.07
2023-05-23T00:12:50.194Z,12.95
2023-05-23T00:15:20.391Z,11.30
2023-05-23T00:17:53.565Z,11.98
2023-05-23T00:20:23.945Z,11.80
2023-05-23T00:22:54.798Z,11.88
2023-05-23T00:27:55.002Z,12.60
2023-05-23T00:30:25.126Z,13.05
2023-05-23T00:32:59.267Z,12.55
2023-05-23T00:35:30.002Z,11.27
2023-05-23T00:38:00.232Z,12.57
2023-05-23T00:40:30.362Z,11.13
2023-05-23T00:43:01.086Z,11.27
2023-05-23T00:45:31.187Z,9.35
2023-05-23T00:48:04.518Z,9.73
2023-05-23T00:50:34.742Z,9.65
2023-05-23T00:53:05.076Z,9.13
2023-05-23T00:55:36.017Z,8.90
2023-05-23T01:00:38.788Z,9.40
2023-05-23T01:03:17.163Z,9.23
2023-05-23T01:05:47.773Z,9.57
2023-05-23T01:08:18.484Z,9.98
2023-05-23T01:10:48.622Z,9.88
2023-05-23T01:13:25.229Z,10.15
2023-05-23T01:16:03.158Z,9.70
2023-05-23T01:18:41.654Z,9.23
2023-05-23T01:21:18.854Z,9.95
2023-05-23T01:24:29.362Z,8.70
2023-05-23T01:27:12.009Z,8.98
2023-05-23T01:29:48.420Z,9.27
2023-05-23T01:32:23.141Z,9.52
2023-05-23T01:34:56.686Z,11.68
2023-05-23T01:37:26.836Z,9.38
2023-05-23T01:39:57.023Z,10.23
2023-05-23T01:42:28.298Z,9.25
2023-05-23T01:45:03.622Z,9.63
2023-05-23T01:47:33.836Z,9.45
2023-05-23T01:50:05.475Z,9.30
2023-05-23T01:52:36.211Z,9.88
2023-05-23T01:55:12.321Z,11.32
2023-05-23T01:57:43.002Z,10.63
2023-05-23T02:00:16.930Z,10.40
2023-05-23T02:02:47.272Z,9.55
2023-05-23T02:05:17.946Z,9.98
2023-05-23T02:07:48.306Z,8.07
2023-05-23T02:10:18.531Z,9.48
2023-05-23T02:12:48.964Z,9.68
2023-05-23T02:15:21.872Z,10.23
2023-05-23T02:17:52.076Z,10.32
2023-05-23T02:20:22.685Z,11.93
2023-05-23T02:22:52.822Z,11.88
2023-05-23T02:25:23.386Z,10.95
2023-05-23T02:27:53.546Z,12.98
2023-05-23T02:30:26.309Z,12.57
2023-05-23T02:32:57.883Z,11.68
2023-05-23T02:35:28.358Z,11.68
2023-05-23T02:37:58.481Z,11.23
2023-05-23T02:40:28.710Z,11.40
2023-05-23T02:42:59.543Z,11.98
2023-05-23T02:45:32.383Z,10.23
2023-05-23T02:48:02.557Z,10.95
2023-05-23T02:50:33.053Z,16.48
2023-05-23T02:53:03.173Z,11.55
2023-05-23T02:55:34.404Z,10.85
2023-05-23T02:58:06.167Z,10.05
2023-05-23T03:00:40.067Z,9.95
2023-05-23T03:03:10.398Z,8.45
2023-05-23T03:05:40.892Z,8.15
2023-05-23T03:08:11.171Z,10.77
2023-05-23T03:10:41.316Z,10.23
2023-05-23T03:13:11.467Z,9.65
2023-05-23T03:15:44.310Z,11.00
2023-05-23T03:18:14.477Z,12.07
2023-05-23T03:20:45.670Z,9.82
2023-05-23T03:23:15.784Z,9.43
2023-05-23T03:25:46.770Z,11.02
2023-05-23T03:30:49.506Z,9.00
2023-05-23T03:33:19.860Z,11.27
2023-05-23T03:35:50.325Z,8.95
2023-05-23T03:38:20.570Z,8.75
2023-05-23T03:40:50.824Z,8.75
2023-05-23T03:43:20.955Z,10.02
2023-05-23T03:45:53.868Z,8.80
2023-05-23T03:48:24.013Z,9.93
2023-05-23T03:50:54.419Z,9.75
2023-05-23T03:53:24.552Z,13.55
2023-05-23T03:55:54.694Z,11.23
2023-05-23T03:58:24.828Z,9.13
2023-05-23T04:00:59.102Z,8.85
2023-05-23T04:03:33.015Z,9.30
2023-05-23T04:06:03.809Z,8.65
2023-05-23T04:08:34.182Z,9.05
2023-05-23T04:11:04.360Z,9.25
2023-05-23T04:13:34.472Z,7.10
2023-05-23T04:16:07.862Z,7.88
2023-05-23T04:18:39.449Z,8.13
2023-05-23T04:21:10.134Z,9.38
2023-05-23T04:23:40.261Z,7.38
2023-05-23T04:26:10.478Z,7.97
2023-05-23T04:28:40.632Z,8.30
2023-05-23T04:31:14.083Z,7.40
2023-05-23T04:33:44.404Z,8.07
2023-05-23T04:36:14.547Z,8.27
2023-05-23T04:38:44.761Z,7.97
2023-05-23T04:41:16.645Z,9.48
2023-05-23T04:43:46.844Z,8.30
2023-05-23T04:46:19.631Z,6.55
2023-05-23T04:48:50.848Z,7.68
2023-05-23T04:51:21.939Z,6.63
2023-05-23T04:53:53.447Z,7.80
2023-05-23T04:56:28.512Z,7.63
2023-05-23T04:59:00.210Z,7.25
2023-05-23T05:01:33.056Z,8.10
2023-05-23T05:04:05.618Z,7.30
2023-05-23T05:06:36.180Z,8.32
2023-05-23T05:09:06.313Z,8.30
2023-05-23T05:11:36.497Z,8.90
2023-05-23T05:14:06.902Z,7.80
2023-05-23T05:16:39.966Z,8.85
2023-05-23T05:19:10.204Z,7.63
2023-05-23T05:21:40.449Z,7.03
2023-05-23T05:24:11.355Z,7.72
2023-05-23T05:29:11.595Z,5.78
2023-05-23T05:31:45.506Z,6.07
2023-05-23T05:34:16.135Z,6.25
2023-05-23T05:36:48.395Z,6.07
2023-05-23T05:39:18.665Z,6.07
2023-05-23T05:41:48.839Z,5.25
2023-05-23T05:44:19.025Z,7.53
2023-05-23T05:46:52.014Z,6.00
2023-05-23T05:49:22.549Z,5.53
2023-05-23T05:51:52.925Z,5.82
2023-05-23T05:54:23.143Z,4.85
2023-05-23T05:56:53.334Z,5.13
2023-05-23T05:59:23.474Z,4.00
2023-05-23T06:01:56.736Z,4.10
2023-05-23T06:04:26.899Z,4.30
2023-05-23T06:06:57.333Z,3.92
2023-05-23T06:09:27.644Z,3.60
2023-05-23T06:11:57.826Z,4.00
2023-05-23T06:14:28.027Z,3.30
2023-05-23T06:19:31.252Z,3.50
2023-05-23T06:22:01.412Z,3.92
2023-05-23T06:24:31.757Z,2.92
2023-05-23T06:27:02.976Z,2.90
2023-05-23T06:29:33.634Z,3.33
2023-05-23T06:34:36.677Z,3.38
2023-05-23T06:37:06.979Z,3.38
2023-05-23T06:39:37.147Z,3.08
2023-05-23T06:42:07.786Z,3.25
2023-05-23T06:44:37.976Z,4.10
2023-05-23T06:47:10.988Z,3.75
2023-05-23T06:49:41.128Z,3.50
2023-05-23T06:52:11.371Z,4.00
2023-05-23T06:54:41.639Z,4.70
2023-05-23T06:57:11.883Z,4.28
2023-05-23T06:59:42.034Z,4.03
2023-05-23T07:02:14.852Z,4.57
2023-05-23T07:04:45.193Z,4.50
2023-05-23T07:07:15.398Z,5.75
2023-05-23T07:09:45.632Z,3.83
2023-05-23T07:12:16.298Z,3.97
2023-05-23T07:14:46.688Z,3.75
2023-05-23T07:17:19.568Z,5.05
2023-05-23T07:19:49.754Z,3.70
2023-05-23T07:22:19.972Z,4.20
2023-05-23T07:24:50.100Z,3.65
2023-05-23T07:27:20.701Z,3.35
2023-05-23T07:29:51.093Z,3.67
2023-05-23T07:32:23.938Z,4.53
2023-05-23T07:34:54.085Z,4.18
2023-05-23T07:37:24.348Z,5.03
2023-05-23T07:39:54.744Z,4.32
2023-05-23T07:42:25.181Z,4.38
2023-05-23T07:44:55.318Z,4.18
2023-05-23T07:47:28.477Z,3.88
2023-05-23T07:49:59.302Z,3.80
2023-05-23T07:54:59.460Z,3.10
2023-05-23T07:57:29.818Z,3.22
2023-05-23T08:00:00.023Z,3.17
2023-05-23T08:02:32.957Z,3.42
2023-05-23T08:05:03.586Z,6.85
2023-05-23T08:07:33.772Z,3.47
2023-05-23T08:10:03.926Z,3.50
2023-05-23T08:12:34.480Z,4.10
2023-05-23T08:15:04.623Z,3.10
2023-05-23T08:17:37.667Z,4.30
2023-05-23T08:20:10.400Z,3.92
2023-05-23T08:22:40.617Z,3.90
2023-05-23T08:25:11.510Z,3.83
2023-05-23T08:27:41.705Z,2.47
2023-05-23T08:30:13.854Z,3.13
2023-05-23T08:32:46.879Z,3.55
2023-05-23T08:35:17.136Z,2.42
2023-05-23T08:37:48.364Z,2.17
2023-05-23T08:40:22.899Z,3.30
2023-05-23T08:42:53.852Z,2.22
2023-05-23T08:47:58.633Z,2.45
2023-05-23T08:50:31.275Z,2.63
2023-05-23T08:53:02.564Z,2.10
2023-05-23T08:55:33.196Z,2.67
2023-05-23T08:58:03.914Z,2.08
2023-05-23T09:00:35.227Z,2.05
2023-05-23T09:03:08.329Z,2.55
2023-05-23T09:05:38.682Z,1.95
2023-05-23T09:08:09.621Z,1.77
2023-05-23T09:10:40.618Z,1.88
2023-05-23T09:13:11.068Z,1.90
2023-05-23T09:15:41.231Z,3.00
2023-05-23T09:18:14.741Z,3.72
2023-05-23T09:20:47.023Z,5.35
2023-05-23T09:23:17.230Z,6.40
2023-05-23T09:25:50.485Z,4.80
2023-05-23T09:28:21.056Z,7.20
2023-05-23T09:30:51.193Z,2.80
2023-05-23T09:33:24.024Z,2.78
2023-05-23T09:35:54.123Z,1.85
2023-05-23T09:38:24.346Z,2.85
2023-05-23T09:40:59.092Z,3.67
2023-05-23T09:43:29.308Z,2.53
2023-05-23T09:46:03.631Z,2.85
2023-05-23T09:48:36.521Z,3.00
2023-05-23T09:51:12.662Z,2.35
2023-05-23T09:53:42.979Z,2.65
2023-05-23T09:58:49.847Z,3.00
2023-05-23T10:01:20.632Z,3.35
2023-05-23T10:04:00.044Z,2.92
2023-05-23T10:06:34.990Z,2.60
2023-05-23T10:09:08.439Z,2.63
2023-05-23T10:12:19.058Z,4.00
2023-05-23T10:14:55.195Z,3.58
2023-05-23T10:17:29.922Z,3.78
2023-05-23T10:20:08.721Z,4.47
2023-05-23T10:22:39.950Z,10.43
2023-05-23T10:25:11.369Z,8.45
2023-05-23T10:27:42.199Z,7.05
2023-05-23T10:30:13.808Z,2.47
2023-05-23T10:32:45.295Z,5.30
2023-05-23T10:35:26.171Z,3.55
2023-05-23T10:38:02.900Z,6.32
2023-05-23T10:43:15.421Z,2.83
2023-05-23T10:45:50.005Z,3.55
2023-05-23T10:48:26.985Z,3.05
2023-05-23T10:51:09.472Z,2.97
2023-05-23T10:53:40.494Z,2.20
2023-05-23T10:56:11.460Z,3.42
2023-05-23T10:58:42.799Z,2.75
2023-05-23T11:01:17.073Z,3.40
2023-05-23T11:03:55.689Z,9.88
2023-05-23T11:06:41.817Z,6.57
2023-05-23T11:09:18.947Z,2.97
2023-05-23T11:11:58.280Z,3.63
2023-05-23T11:14:38.278Z,3.28
2023-05-23T11:17:20.301Z,3.15
2023-05-23T11:20:01.658Z,3.88
2023-05-23T11:22:34.763Z,3.10
2023-05-23T11:25:09.461Z,2.95
2023-05-23T11:27:41.661Z,3.13
2023-05-23T11:30:14.410Z,3.15
2023-05-23T11:32:46.023Z,5.38
2023-05-23T11:35:16.234Z,5.00
2023-05-23T11:37:49.363Z,4.63
2023-05-23T11:40:29.699Z,10.57
2023-05-23T11:43:00.462Z,12.45
2023-05-23T11:45:32.343Z,2.63
2023-05-23T11:48:07.542Z,2.58
2023-05-23T11:50:45.268Z,2.83
2023-05-23T11:53:21.144Z,6.70
2023-05-23T11:55:56.309Z,14.70
2023-05-23T11:58:30.564Z,5.60
2023-05-23T12:01:04.706Z,4.75
2023-05-23T12:03:35.406Z,5.88
2023-05-23T12:06:05.906Z,4.20
2023-05-23T12:08:38.742Z,3.35
2023-05-23T12:11:12.128Z,3.10
2023-05-23T12:13:45.174Z,3.40
2023-05-23T12:16:17.626Z,2.85
2023-05-23T12:18:47.901Z,3.85
2023-05-23T12:21:18.205Z,2.40
2023-05-23T12:26:22.409Z,3.00
2023-05-23T12:28:52.860Z,3.13
2023-05-23T12:33:58.728Z,2.67
2023-05-23T12:36:32.536Z,3.80
2023-05-23T12:39:09.399Z,2.63
2023-05-23T12:41:39.545Z,2.95
2023-05-23T12:44:09.768Z,3.75
2023-05-23T12:46:40.788Z,5.05
2023-05-23T12:49:10.984Z,2.78
2023-05-23T12:51:41.165Z,2.67
2023-05-23T12:54:14.673Z,2.95
2023-05-23T12:56:44.970Z,3.33
2023-05-23T12:59:15.357Z,3.58
2023-05-23T13:01:45.810Z,3.00
2023-05-23T13:09:18.638Z,3.28
2023-05-23T13:11:48.903Z,4.45
2023-05-23T13:14:19.370Z,3.35
2023-05-23T13:19:19.681Z,3.80
2023-05-23T13:21:50.196Z,3.50
2023-05-23T13:26:53.042Z,6.53
2023-05-23T13:29:23.305Z,2.85
2023-05-23T13:31:54.047Z,2.40
2023-05-23T13:34:24.425Z,2.47
2023-05-23T13:36:54.573Z,4.15
2023-05-23T13:39:27.597Z,4.05
2023-05-23T13:41:57.866Z,2.92
2023-05-23T13:44:28.105Z,2.58
2023-05-23T13:46:58.381Z,3.58
2023-05-23T13:49:28.640Z,2.58
2023-05-23T13:51:58.829Z,3.13
2023-05-23T13:54:31.916Z,2.35
2023-05-23T13:57:03.036Z,3.22
2023-05-23T13:59:33.301Z,2.92
2023-05-23T14:02:03.565Z,2.80
2023-05-23T14:04:33.764Z,2.47
2023-05-23T14:07:04.229Z,2.95
2023-05-23T14:09:37.078Z,4.68
2023-05-23T14:12:08.323Z,2.55
2023-05-23T14:14:38.505Z,3.58
2023-05-23T14:17:09.109Z,2.58
2023-05-23T14:19:39.314Z,2.40
2023-05-23T14:22:09.885Z,3.00
2023-05-23T14:24:42.785Z,2.33
2023-05-23T14:27:12.991Z,2.65
2023-05-23T14:29:46.572Z,2.17
2023-05-23T14:32:16.929Z,2.70
2023-05-23T14:34:47.216Z,2.05
2023-05-23T14:37:17.340Z,3.10
2023-05-23T14:39:50.138Z,2.30
2023-05-23T14:42:20.291Z,2.40
2023-05-23T14:44:50.520Z,3.35
2023-05-23T14:47:20.709Z,2.70
2023-05-23T14:49:50.929Z,2.85
2023-05-23T14:52:21.280Z,3.30
2023-05-23T14:54:54.039Z,2.28
2023-05-23T14:57:24.385Z,2.58
2023-05-23T14:59:54.778Z,1.98
2023-05-23T15:02:24.988Z,3.95
2023-05-23T15:04:55.394Z,2.10
2023-05-23T15:07:25.642Z,3.03
2023-05-23T15:09:58.509Z,2.45
2023-05-23T15:12:28.875Z,2.30
2023-05-23T15:15:04.156Z,4.38
2023-05-23T15:17:35.388Z,3.72
2023-05-23T15:20:07.276Z,2.28
2023-05-23T15:22:39.894Z,2.88
2023-05-23T15:25:13.935Z,2.38
2023-05-23T15:27:45.135Z,2.17
2023-05-23T15:30:15.996Z,2.42
2023-05-23T15:32:46.892Z,2.47
2023-05-23T15:35:19.523Z,2.15
2023-05-23T15:37:49.931Z,3.28
2023-05-23T15:40:23.454Z,2.42
2023-05-23T15:42:53.918Z,2.47
2023-05-23T15:45:24.343Z,2.90
2023-05-23T15:47:54.573Z,3.60
2023-05-23T15:50:24.868Z,3.08
2023-05-23T15:52:55.272Z,2.42
2023-05-23T15:55:28.118Z,3.10
2023-05-23T15:57:58.281Z,2.78
2023-05-23T16:00:28.930Z,2.55
2023-05-23T16:05:29.106Z,3.63
2023-05-23T16:07:59.353Z,2.30
2023-05-23T16:10:32.104Z,2.88
2023-05-23T16:13:02.510Z,2.10
2023-05-23T16:15:32.713Z,2.20
2023-05-23T16:18:02.904Z,2.33
2023-05-23T16:20:35.134Z,2.58
2023-05-23T16:23:05.580Z,2.45
2023-05-23T16:25:38.744Z,2.95
2023-05-23T16:28:08.944Z,4.15
2023-05-23T16:30:39.277Z,3.20
2023-05-23T16:33:09.481Z,2.58
2023-05-23T16:35:39.899Z,2.60
2023-05-23T16:38:10.723Z,2.67
2023-05-23T16:43:13.770Z,2.47
2023-05-23T16:45:44.532Z,2.40
2023-05-23T16:48:14.811Z,3.28
2023-05-23T16:50:45.285Z,3.03
2023-05-23T16:53:15.914Z,2.38
2023-05-23T16:58:21.310Z,2.08
2023-05-23T17:00:52.001Z,2.67
2023-05-23T17:03:23.404Z,2.53
2023-05-23T17:05:55.045Z,2.50
2023-05-23T17:08:25.464Z,1.92
2023-05-23T17:10:58.281Z,2.22
2023-05-23T17:13:28.453Z,3.55
2023-05-23T17:15:58.685Z,5.45
2023-05-23T17:18:29.093Z,2.47
2023-05-23T17:20:59.970Z,2.00
2023-05-23T17:23:30.394Z,1.98
2023-05-23T17:26:03.559Z,2.75
2023-05-23T17:28:33.912Z,2.85
2023-05-23T17:31:04.378Z,3.40
2023-05-23T17:33:34.565Z,1.67
2023-05-23T17:36:04.795Z,2.78
2023-05-23T17:38:36.097Z,3.15
2023-05-23T17:41:09.080Z,2.63
2023-05-23T17:43:39.242Z,2.28
2023-05-23T17:46:09.463Z,2.05
2023-05-23T17:51:17.006Z,2.88
2023-05-23T17:53:47.242Z,4.15
2023-05-23T17:56:20.189Z,3.42
2023-05-23T17:58:50.352Z,1.92
2023-05-23T18:01:20.621Z,2.28
2023-05-23T18:03:50.930Z,3.13
2023-05-23T18:06:21.280Z,3.08
2023-05-23T18:08:51.540Z,4.38
2023-05-23T18:11:24.569Z,3.22
2023-05-23T18:13:54.817Z,2.40
2023-05-23T18:16:25.236Z,2.75
2023-05-23T18:18:55.408Z,3.00
2023-05-23T18:21:25.914Z,3.47
2023-05-23T18:23:56.920Z,2.35
2023-05-23T18:26:30.297Z,3.10
2023-05-23T18:29:02.188Z,3.58
2023-05-23T18:31:32.640Z,3.97
2023-05-23T18:34:02.959Z,3.00
2023-05-23T18:36:33.293Z,4.40
2023-05-23T18:39:04.768Z,3.42
2023-05-23T18:41:37.677Z,3.33
2023-05-23T18:44:08.003Z,3.47
2023-05-23T18:46:38.305Z,3.30
2023-05-23T18:49:08.726Z,2.88
2023-05-23T18:51:39.156Z,3.28
2023-05-23T18:54:09.498Z,3.17
2023-05-23T18:56:42.518Z,3.17
2023-05-23T18:59:16.048Z,2.80
2023-05-23T19:01:46.524Z,1.83
2023-05-23T19:04:17.534Z,2.88
2023-05-23T19:06:49.803Z,1.77
2023-05-23T19:09:20.153Z,1.85
2023-05-23T19:11:53.152Z,2.50
2023-05-23T19:14:23.778Z,2.08
2023-05-23T19:16:54.231Z,3.25
2023-05-23T19:19:24.661Z,3.05
2023-05-23T19:21:55.131Z,3.72
2023-05-23T19:24:25.546Z,2.72
2023-05-23T19:26:59.160Z,2.60
2023-05-23T19:29:29.544Z,2.08
2023-05-23T19:32:00.154Z,2.65
2023-05-23T19:34:30.674Z,2.63
2023-05-23T19:37:01.180Z,2.38
2023-05-23T19:39:31.601Z,2.25
2023-05-23T19:42:04.574Z,2.15
2023-05-23T19:44:34.955Z,1.98
2023-05-23T19:47:05.359Z,2.85
2023-05-23T19:49:36.122Z,2.70
2023-05-23T19:52:06.785Z,2.28
2023-05-23T19:54:37.270Z,2.08
2023-05-23T19:57:10.490Z,3.38
2023-05-23T19:59:40.891Z,2.80
2023-05-23T20:02:12.210Z,2.20
2023-05-23T20:04:42.562Z,2.42
2023-05-23T20:07:13.098Z,1.90
2023-05-23T20:09:43.547Z,2.20
2023-05-23T20:12:16.675Z,2.58
2023-05-23T20:14:47.295Z,2.38
2023-05-23T20:17:17.742Z,2.72
2023-05-23T20:19:48.066Z,2.30
2023-05-23T20:22:18.542Z,2.53
2023-05-23T20:24:49.503Z,5.30
2023-05-23T20:27:22.509Z,2.40
2023-05-23T20:29:53.659Z,2.83
2023-05-23T20:34:54.174Z,2.60
2023-05-23T20:37:24.571Z,4.75
2023-05-23T20:39:54.906Z,2.33
2023-05-23T20:42:29.136Z,3.05
2023-05-23T20:44:59.880Z,2.55
2023-05-23T20:47:30.325Z,2.90
2023-05-23T20:50:00.742Z,2.75
2023-05-23T20:52:31.147Z,2.60
2023-05-23T20:55:03.064Z,2.67
2023-05-23T20:57:37.153Z,2.60
2023-05-23T21:00:13.365Z,3.10
2023-05-23T21:02:44.459Z,2.50
2023-05-23T21:05:15.175Z,2.83
2023-05-23T21:07:45.617Z,3.22
2023-05-23T21:10:16.009Z,2.78
2023-05-23T21:12:51.024Z,3.13
2023-05-23T21:15:21.724Z,3.15
2023-05-23T21:17:53.015Z,2.85
2023-05-23T21:20:24.061Z,2.55
2023-05-23T21:22:54.540Z,2.45
2023-05-23T21:25:24.929Z,2.63
2023-05-23T21:27:57.901Z,2.20
2023-05-23T21:30:28.367Z,4.18
2023-05-23T21:32:58.907Z,3.22
2023-05-23T21:35:29.324Z,3.95
2023-05-23T21:37:59.725Z,2.70
2023-05-23T21:40:30.077Z,2.67
2023-05-23T21:43:03.094Z,3.35
2023-05-23T21:45:33.426Z,3.78
2023-05-23T21:48:04.128Z,3.47
2023-05-23T21:50:34.552Z,3.25
2023-05-23T21:53:04.941Z,2.97
2023-05-23T21:55:35.370Z,2.72
2023-05-23T21:58:11.383Z,3.10
2023-05-23T22:00:43.671Z,3.05
2023-05-23T22:03:14.313Z,3.03
2023-05-23T22:05:44.897Z,3.15
2023-05-23T22:08:15.313Z,2.83
2023-05-23T22:10:45.814Z,3.53
2023-05-23T22:13:19.461Z,3.15
2023-05-23T22:15:49.951Z,2.95
2023-05-23T22:18:20.450Z,3.13
2023-05-23T22:20:50.792Z,3.97
2023-05-23T22:23:21.367Z,3.47
2023-05-23T22:25:51.841Z,2.60
2023-05-23T22:28:25.038Z,4.72
2023-05-23T22:30:55.385Z,2.92
2023-05-23T22:33:26.144Z,3.75
2023-05-23T22:35:56.606Z,4.28
2023-05-23T22:38:26.972Z,4.25
2023-05-23T22:40:57.265Z,3.65
2023-05-23T22:43:30.222Z,2.47
2023-05-23T22:46:00.733Z,3.47
2023-05-23T22:48:34.187Z,3.03
2023-05-23T22:51:09.923Z,4.00
2023-05-23T22:53:41.388Z,3.28
2023-05-23T22:56:11.552Z,3.22
2023-05-23T22:58:44.669Z,3.50
2023-05-23T23:01:15.088Z,2.80
2023-05-23T23:03:45.944Z,2.80
2023-05-23T23:06:17.111Z,2.67
2023-05-23T23:11:18.262Z,2.85
2023-05-23T23:13:51.269Z,3.72
2023-05-23T23:16:22.131Z,4.35
2023-05-23T23:18:52.854Z,3.10
2023-05-23T23:21:23.404Z,4.30
2023-05-23T23:23:53.795Z,3.08
2023-05-23T23:26:24.148Z,2.63
2023-05-23T23:28:57.390Z,3.92
2023-05-23T23:31:27.788Z,3.42
2023-05-23T23:33:58.173Z,2.67
2023-05-23T23:36:28.482Z,2.83
2023-05-23T23:38:58.906Z,2.55
2023-05-23T23:41:29.049Z,2.95
2023-05-23T23:44:02.219Z,3.33
2023-05-23T23:46:32.836Z,2.60
2023-05-23T23:49:03.150Z,2.55
2023-05-23T23:51:33.322Z,3.40
2023-05-23T23:54:03.706Z,3.83
2023-05-23T23:56:33.822Z,3.72
2023-05-23T23:59:06.927Z,4.18
